createdAt,value
2023-02-23T00:01:19.478Z,100584.78
2023-02-23T00:03:46.670Z,100604.88
2023-02-23T00:06:13.819Z,100639.50
2023-02-23T00:08:40.648Z,100563.28
2023-02-23T00:11:09.400Z,100561.88
2023-02-23T00:13:37.704Z,100636.09
2023-02-23T00:16:12.830Z,100630.78
2023-02-23T00:18:45.824Z,100632.19
2023-02-23T00:21:15.475Z,100576.34
2023-02-23T00:24:09.438Z,100606.72
2023-02-23T00:26:37.771Z,100561.28
2023-02-23T00:29:06.958Z,100592.25
2023-02-23T00:31:34.287Z,100642.22
2023-02-23T00:34:02.699Z,100641.97
2023-02-23T00:36:32.294Z,100625.50
2023-02-23T00:39:00.732Z,100614.84
2023-02-23T00:41:30.490Z,100621.31
2023-02-23T00:43:58.305Z,100638.34
2023-02-23T00:46:30.011Z,100587.03
2023-02-23T00:48:58.270Z,100585.06
2023-02-23T00:51:32.261Z,100605.97
2023-02-23T00:54:00.121Z,100599.59
2023-02-23T00:56:27.989Z,100583.72
2023-02-23T00:58:55.184Z,100604.09
2023-02-23T01:01:22.366Z,100587.59
2023-02-23T01:03:49.189Z,100608.28
2023-02-23T01:06:16.780Z,100599.88
2023-02-23T01:08:45.324Z,100565.31
2023-02-23T01:11:13.766Z,100608.56
2023-02-23T01:13:41.629Z,100538.00
2023-02-23T01:16:09.974Z,100533.53
2023-02-23T01:18:37.184Z,100558.63
2023-02-23T01:21:05.590Z,100590.75
2023-02-23T01:23:32.719Z,100515.69
2023-02-23T01:25:59.626Z,100568.16
2023-02-23T01:28:26.460Z,100573.47
2023-02-23T01:30:53.446Z,100580.72
2023-02-23T01:33:20.377Z,100605.31
2023-02-23T01:35:57.930Z,100595.81
2023-02-23T01:38:24.668Z,100606.13
2023-02-23T01:40:51.428Z,100597.47
2023-02-23T01:43:26.114Z,100586.56
2023-02-23T01:45:55.312Z,100561.50
2023-02-23T01:48:23.596Z,100594.09
2023-02-23T01:51:03.814Z,100549.16
2023-02-23T01:53:34.121Z,100548.91
2023-02-23T01:56:04.058Z,100595.53
2023-02-23T01:58:30.805Z,100596.09
2023-02-23T02:00:58.727Z,100533.00
2023-02-23T02:03:44.351Z,100617.03
2023-02-23T02:06:14.293Z,100597.47
2023-02-23T02:08:45.646Z,100587.44
2023-02-23T02:11:26.153Z,100593.03
2023-02-23T02:13:54.388Z,100574.31
2023-02-23T02:16:48.011Z,100596.63
2023-02-23T02:19:27.009Z,100582.94
2023-02-23T02:22:31.057Z,100587.13
2023-02-23T02:25:13.207Z,100591.63
2023-02-23T02:28:08.920Z,100588.81
2023-02-23T02:31:08.613Z,100589.97
2023-02-23T02:34:03.364Z,100582.69
2023-02-23T02:36:52.867Z,100580.75
2023-02-23T02:39:24.522Z,100535.25
2023-02-23T02:42:21.787Z,100577.13
2023-02-23T02:45:07.941Z,100584.97
2023-02-23T02:47:54.525Z,100544.47
2023-02-23T02:50:31.510Z,100572.97
2023-02-23T02:53:11.661Z,100538.91
2023-02-23T02:55:41.500Z,100556.78
2023-02-23T02:58:08.309Z,100533.59
2023-02-23T03:00:59.615Z,100574.09
2023-02-23T03:03:59.008Z,100523.25
2023-02-23T03:06:50.034Z,100537.22
2023-02-23T03:09:35.270Z,100569.91
2023-02-23T03:12:49.805Z,100559.84
2023-02-23T03:15:40.936Z,100553.97
2023-02-23T03:18:49.815Z,100526.31
2023-02-23T03:21:38.172Z,100514.59
2023-02-23T03:24:55.586Z,100551.19
2023-02-23T03:28:04.357Z,100555.59
2023-02-23T03:31:19.185Z,100561.19
2023-02-23T03:34:19.220Z,100549.75
2023-02-23T03:37:05.938Z,100550.31
2023-02-23T03:39:57.385Z,100512.63
2023-02-23T03:42:45.305Z,100546.97
2023-02-23T03:45:32.682Z,100520.41
2023-02-23T03:48:18.008Z,100505.63
2023-02-23T03:51:09.613Z,100520.13
2023-02-23T03:54:02.899Z,100541.63
2023-02-23T03:56:48.356Z,100539.13
2023-02-23T03:59:33.718Z,100505.63
2023-02-23T04:02:19.010Z,100537.97
2023-02-23T04:05:04.409Z,100507.28
2023-02-23T04:07:49.628Z,100503.94
2023-02-23T04:10:35.542Z,100505.88
2023-02-23T04:13:25.327Z,100525.97
2023-02-23T04:16:01.917Z,100518.72
2023-02-23T04:18:36.613Z,100522.34
2023-02-23T04:21:04.212Z,100489.44
2023-02-23T04:23:31.261Z,100508.97
2023-02-23T04:25:58.105Z,100501.94
2023-02-23T04:28:25.834Z,100520.66
2023-02-23T04:30:53.013Z,100499.75
2023-02-23T04:33:21.737Z,100484.13
2023-02-23T04:35:49.103Z,100453.06
2023-02-23T04:38:15.834Z,100483.78
2023-02-23T04:40:42.692Z,100524.00
2023-02-23T04:43:12.142Z,100477.09
2023-02-23T04:45:38.964Z,100514.78
2023-02-23T04:48:06.078Z,100482.09
2023-02-23T04:50:32.962Z,100517.28
2023-02-23T04:52:59.978Z,100493.81
2023-02-23T04:55:26.909Z,100512.53
2023-02-23T04:57:58.204Z,100460.34
2023-02-23T05:00:25.106Z,100461.69
2023-02-23T05:02:51.910Z,100513.06
2023-02-23T05:05:19.103Z,100486.59
2023-02-23T05:07:45.955Z,100500.53
2023-02-23T05:10:12.743Z,100485.47
2023-02-23T05:12:39.688Z,100514.50
2023-02-23T05:15:07.118Z,100434.69
2023-02-23T05:17:33.952Z,100510.63
2023-02-23T05:20:00.850Z,100475.72
2023-02-23T05:22:27.660Z,100506.72
2023-02-23T05:24:57.135Z,100519.28
2023-02-23T05:27:24.350Z,100517.03
2023-02-23T05:29:51.065Z,100502.25
2023-02-23T05:32:18.266Z,100482.97
2023-02-23T05:34:45.281Z,100512.28
2023-02-23T05:37:12.099Z,100448.59
2023-02-23T05:39:39.334Z,100479.03
2023-02-23T05:42:06.320Z,100480.94
2023-02-23T05:44:33.181Z,100506.38
2023-02-23T05:47:00.177Z,100456.94
2023-02-23T05:49:27.022Z,100509.41
2023-02-23T05:51:53.754Z,100456.94
2023-02-23T05:54:20.495Z,100471.75
2023-02-23T05:56:47.441Z,100440.19
2023-02-23T05:59:14.366Z,100482.63
2023-02-23T06:01:41.698Z,100488.22
2023-02-23T06:04:08.646Z,100482.88
2023-02-23T06:06:35.539Z,100475.81
2023-02-23T06:09:03.761Z,100430.91
2023-02-23T06:11:31.265Z,100470.53
2023-02-23T06:13:59.541Z,100481.97
2023-02-23T06:16:27.456Z,100487.03
2023-02-23T06:18:54.406Z,100498.72
2023-02-23T06:21:21.568Z,100490.38
2023-02-23T06:23:48.333Z,100500.97
2023-02-23T06:26:15.143Z,100511.00
2023-02-23T06:28:41.931Z,100492.88
2023-02-23T06:31:08.830Z,100513.78
2023-02-23T06:33:35.821Z,100509.34
2023-02-23T06:36:02.574Z,100481.97
2023-02-23T06:38:29.450Z,100446.22
2023-02-23T06:40:56.377Z,100438.66
2023-02-23T06:43:23.505Z,100499.81
2023-02-23T06:45:50.512Z,100457.34
2023-02-23T06:48:17.911Z,100445.91
2023-02-23T06:50:44.713Z,100466.88
2023-02-23T06:53:11.421Z,100487.50
2023-02-23T06:55:38.412Z,100481.34
2023-02-23T06:58:06.663Z,100453.41
2023-02-23T07:00:33.590Z,100490.56
2023-02-23T07:03:00.555Z,100416.56
2023-02-23T07:05:27.443Z,100480.50
2023-02-23T07:07:54.312Z,100486.06
2023-02-23T07:10:21.216Z,100490.50
2023-02-23T07:12:48.062Z,100487.38
2023-02-23T07:15:17.810Z,100481.81
2023-02-23T07:17:45.359Z,100348.88
2023-02-23T07:20:12.781Z,100403.59
2023-02-23T07:22:40.084Z,100433.75
2023-02-23T07:25:08.854Z,100425.13
2023-02-23T07:27:36.095Z,100394.13
2023-02-23T07:30:03.187Z,100435.69
2023-02-23T07:32:30.424Z,100407.16
2023-02-23T07:34:57.239Z,100401.84
2023-02-23T07:37:23.966Z,100437.28
2023-02-23T07:39:50.781Z,100387.06
2023-02-23T07:42:17.578Z,100468.38
2023-02-23T07:44:44.851Z,100448.00
2023-02-23T07:47:11.763Z,100417.59
2023-02-23T07:49:38.655Z,100461.25
2023-02-23T07:52:05.526Z,100469.13
2023-02-23T07:54:32.278Z,100447.13
2023-02-23T07:56:59.627Z,100385.25
2023-02-23T07:59:26.436Z,100444.50
2023-02-23T08:01:53.287Z,100404.34
2023-02-23T08:04:20.293Z,100455.97
2023-02-23T08:06:47.080Z,100474.69
2023-02-23T08:09:14.126Z,100475.53
2023-02-23T08:11:41.050Z,100493.13
2023-02-23T08:14:07.809Z,100503.16
2023-02-23T08:16:34.699Z,100489.75
2023-02-23T08:19:01.771Z,100462.94
2023-02-23T08:21:29.713Z,100494.34
2023-02-23T08:23:57.973Z,100411.72
2023-02-23T08:26:25.727Z,100471.75
2023-02-23T08:28:53.595Z,100428.69
2023-02-23T08:31:24.450Z,100453.56
2023-02-23T08:33:52.125Z,100441.06
2023-02-23T08:36:18.991Z,100472.97
2023-02-23T08:38:45.731Z,100467.59
2023-02-23T08:41:12.636Z,100454.91
2023-02-23T08:43:39.431Z,100466.41
2023-02-23T08:46:07.009Z,100503.59
2023-02-23T08:48:34.188Z,100495.53
2023-02-23T08:51:01.055Z,100359.47
2023-02-23T08:53:29.937Z,100469.38
2023-02-23T08:56:00.964Z,100459.13
2023-02-23T08:58:28.533Z,100497.06
2023-02-23T09:00:55.374Z,100464.69
2023-02-23T09:03:22.575Z,100424.56
2023-02-23T09:05:49.949Z,100484.13
2023-02-23T09:08:16.743Z,100492.91
2023-02-23T09:10:46.377Z,100495.94
2023-02-23T09:13:13.338Z,100490.94
2023-02-23T09:15:40.433Z,100458.66
2023-02-23T09:18:07.912Z,100444.31
2023-02-23T09:20:34.842Z,100474.56
2023-02-23T09:23:01.676Z,100489.78
2023-02-23T09:25:29.572Z,100390.91
2023-02-23T09:28:00.189Z,100468.56
2023-02-23T09:30:27.097Z,100480.22
2023-02-23T09:32:54.893Z,100374.22
2023-02-23T09:35:22.765Z,100467.09
2023-02-23T09:37:53.733Z,100478.63
2023-02-23T09:40:28.356Z,100458.00
2023-02-23T09:43:01.211Z,100480.94
2023-02-23T09:45:55.121Z,100452.34
2023-02-23T09:48:23.758Z,100460.66
2023-02-23T09:50:52.347Z,100465.16
2023-02-23T09:53:50.647Z,100416.47
2023-02-23T09:56:40.285Z,100490.00
2023-02-23T09:59:10.567Z,100479.66
2023-02-23T10:01:46.612Z,100493.00
2023-02-23T10:04:50.256Z,100458.72
2023-02-23T10:07:32.173Z,100478.59
2023-02-23T10:10:23.221Z,100486.69
2023-02-23T10:13:01.519Z,100476.97
2023-02-23T10:15:40.413Z,100436.50
2023-02-23T10:18:10.654Z,100470.88
2023-02-23T10:20:43.846Z,100469.22
2023-02-23T10:23:18.322Z,100382.28
2023-02-23T10:25:48.993Z,100452.88
2023-02-23T10:28:17.163Z,100466.28
2023-02-23T10:30:44.132Z,100422.34
2023-02-23T10:33:21.357Z,100432.38
2023-02-23T10:35:48.142Z,100424.00
2023-02-23T10:38:17.485Z,100412.34
2023-02-23T10:40:50.421Z,100452.72
2023-02-23T10:43:17.173Z,100469.09
2023-02-23T10:45:46.354Z,100457.88
2023-02-23T10:48:22.196Z,100353.88
2023-02-23T10:50:49.577Z,100429.59
2023-02-23T10:53:24.234Z,100434.47
2023-02-23T10:56:11.004Z,100382.06
2023-02-23T10:58:41.521Z,100438.84
2023-02-23T11:01:08.904Z,100407.94
2023-02-23T11:03:39.199Z,100434.22
2023-02-23T11:06:07.293Z,100015.47
2023-02-23T11:08:36.306Z,100433.84
2023-02-23T11:11:15.722Z,100415.66
2023-02-23T11:13:44.886Z,100409.84
2023-02-23T11:16:16.524Z,100420.88
2023-02-23T11:19:14.056Z,100424.25
2023-02-23T11:21:41.573Z,100421.63
2023-02-23T11:24:30.969Z,100396.47
2023-02-23T11:27:00.599Z,100377.38
2023-02-23T11:29:36.628Z,100397.56
2023-02-23T11:32:14.431Z,100348.81
2023-02-23T11:34:41.401Z,100387.84
2023-02-23T11:37:15.355Z,100371.13
2023-02-23T11:40:03.146Z,100391.41
2023-02-23T11:42:33.610Z,100302.38
2023-02-23T11:45:17.073Z,100271.41
2023-02-23T11:47:49.705Z,100340.00
2023-02-23T11:50:30.746Z,100339.50
2023-02-23T11:53:04.011Z,100342.38
2023-02-23T11:55:31.586Z,100366.47
2023-02-23T11:58:29.943Z,100346.84
2023-02-23T12:01:01.103Z,100317.16
2023-02-23T12:03:29.279Z,100336.84
2023-02-23T12:05:57.902Z,100311.81
2023-02-23T12:08:45.746Z,100348.50
2023-02-23T12:11:18.634Z,100347.00
2023-02-23T12:14:00.958Z,100323.31
2023-02-23T12:16:31.247Z,100323.72
2023-02-23T12:19:29.352Z,100309.88
2023-02-23T12:21:58.687Z,100330.09
2023-02-23T12:24:34.782Z,100310.63
2023-02-23T12:27:06.516Z,100319.19
2023-02-23T12:30:09.412Z,100284.66
2023-02-23T12:32:56.468Z,100257.25
2023-02-23T12:35:33.935Z,100259.34
2023-02-23T12:38:01.467Z,100304.63
2023-02-23T12:40:30.347Z,100282.69
2023-02-23T12:43:09.239Z,100300.63
2023-02-23T12:45:49.352Z,100248.28
2023-02-23T12:48:25.805Z,100278.56
2023-02-23T12:50:53.995Z,100266.94
2023-02-23T12:53:29.505Z,100259.97
2023-02-23T12:56:15.107Z,100269.13
2023-02-23T12:58:56.952Z,100252.00
2023-02-23T13:01:36.480Z,100253.41
2023-02-23T13:04:09.502Z,100251.75
2023-02-23T13:06:41.824Z,100157.75
2023-02-23T13:09:44.249Z,100243.78
2023-02-23T13:12:18.073Z,100171.09
2023-02-23T13:14:48.472Z,100228.78
2023-02-23T13:17:28.031Z,100225.28
2023-02-23T13:19:58.941Z,100158.75
2023-02-23T13:22:25.811Z,100227.63
2023-02-23T13:24:52.763Z,100212.31
2023-02-23T13:27:25.629Z,100223.69
2023-02-23T13:29:55.443Z,100219.50
2023-02-23T13:32:24.393Z,100204.81
2023-02-23T13:35:00.866Z,100165.31
2023-02-23T13:37:35.120Z,100198.03
2023-02-23T13:40:36.824Z,100191.75
2023-02-23T13:43:30.005Z,100194.53
2023-02-23T13:46:37.534Z,100182.13
2023-02-23T13:49:10.739Z,100180.97
2023-02-23T13:51:38.361Z,100143.50
2023-02-23T13:54:06.294Z,100151.13
2023-02-23T13:56:38.458Z,100176.53
2023-02-23T13:59:08.467Z,100152.41
2023-02-23T14:01:40.013Z,100076.41
2023-02-23T14:04:37.339Z,100128.22
2023-02-23T14:07:05.652Z,100131.56
2023-02-23T14:09:36.923Z,100143.66
2023-02-23T14:12:42.845Z,100155.47
2023-02-23T14:15:28.262Z,100158.63
2023-02-23T14:17:59.503Z,100091.44
2023-02-23T14:20:38.555Z,100138.34
2023-02-23T14:23:12.200Z,100144.81
2023-02-23T14:25:38.974Z,100133.69
2023-02-23T14:28:22.765Z,100087.19
2023-02-23T14:30:59.422Z,100089.03
2023-02-23T14:33:42.904Z,100132.03
2023-02-23T14:36:21.689Z,100129.97
2023-02-23T14:38:58.004Z,100126.50
2023-02-23T14:41:30.330Z,100086.44
2023-02-23T14:44:29.502Z,100108.03
2023-02-23T14:47:23.929Z,100112.66
2023-02-23T14:49:58.945Z,100023.03
2023-02-23T14:52:35.974Z,100114.63
2023-02-23T14:55:09.071Z,100105.84
2023-02-23T14:57:36.262Z,100052.44
2023-02-23T15:00:13.136Z,100107.13
2023-02-23T15:02:53.621Z,100086.63
2023-02-23T15:05:23.148Z,100090.34
2023-02-23T15:07:51.996Z,100104.31
2023-02-23T15:10:23.096Z,100059.16
2023-02-23T15:12:50.736Z,100074.38
2023-02-23T15:15:19.348Z,100043.97
2023-02-23T15:17:47.400Z,100061.84
2023-02-23T15:20:17.546Z,99955.50
2023-02-23T15:22:47.006Z,99928.66
2023-02-23T15:25:16.488Z,100078.22
2023-02-23T15:27:45.441Z,100078.97
2023-02-23T15:30:31.217Z,100072.47
2023-02-23T15:33:11.471Z,100093.66
2023-02-23T15:35:47.627Z,100080.59
2023-02-23T15:38:42.331Z,100042.34
2023-02-23T15:41:15.407Z,99986.34
2023-02-23T15:43:42.718Z,100037.31
2023-02-23T15:46:09.636Z,100032.44
2023-02-23T15:48:47.206Z,100007.31
2023-02-23T15:51:25.045Z,100078.97
2023-02-23T15:53:52.272Z,100039.66
2023-02-23T15:56:30.354Z,99956.09
2023-02-23T15:58:59.158Z,100077.91
2023-02-23T16:01:30.423Z,100080.72
2023-02-23T16:03:57.159Z,100071.59
2023-02-23T16:06:25.263Z,100062.66
2023-02-23T16:09:06.020Z,100067.25
2023-02-23T16:11:36.183Z,100032.13
2023-02-23T16:14:05.577Z,99993.81
2023-02-23T16:16:34.771Z,99992.38
2023-02-23T16:19:01.711Z,100038.66
2023-02-23T16:21:31.839Z,100059.34
2023-02-23T16:24:02.138Z,100030.28
2023-02-23T16:26:34.555Z,100028.41
2023-02-23T16:29:02.392Z,99865.00
2023-02-23T16:31:44.275Z,99923.13
2023-02-23T16:34:25.429Z,99986.78
2023-02-23T16:36:56.496Z,100030.47
2023-02-23T16:39:29.554Z,100057.78
2023-02-23T16:41:59.835Z,100005.13
2023-02-23T16:44:34.297Z,99987.50
2023-02-23T16:47:08.459Z,100065.69
2023-02-23T16:49:35.262Z,100034.66
2023-02-23T16:52:02.282Z,100018.25
2023-02-23T16:54:29.222Z,100042.75
2023-02-23T16:56:56.537Z,99983.34
2023-02-23T16:59:23.415Z,99994.56
2023-02-23T17:01:51.114Z,100036.75
2023-02-23T17:04:19.108Z,100014.72
2023-02-23T17:06:47.565Z,100005.97
2023-02-23T17:09:14.492Z,99926.22
2023-02-23T17:11:41.381Z,100017.09
2023-02-23T17:14:08.317Z,100073.16
2023-02-23T17:16:35.220Z,99960.25
2023-02-23T17:19:02.433Z,99926.81
2023-02-23T17:21:29.452Z,100020.78
2023-02-23T17:24:02.991Z,100072.13
2023-02-23T17:26:29.733Z,100050.59
2023-02-23T17:28:56.620Z,100052.88
2023-02-23T17:31:25.783Z,100046.25
2023-02-23T17:33:55.435Z,100078.75
2023-02-23T17:36:24.026Z,100049.75
2023-02-23T17:38:50.896Z,100051.09
2023-02-23T17:41:19.385Z,100045.78
2023-02-23T17:43:46.575Z,100071.56
2023-02-23T17:46:13.625Z,100011.38
2023-02-23T17:48:44.667Z,100031.03
2023-02-23T17:51:13.030Z,100025.22
2023-02-23T17:53:39.877Z,100035.25
2023-02-23T17:56:07.000Z,100070.50
2023-02-23T17:58:34.001Z,100053.34
2023-02-23T18:01:03.201Z,99969.69
2023-02-23T18:03:34.702Z,100083.53
2023-02-23T18:06:06.966Z,100056.91
2023-02-23T18:08:33.834Z,100052.09
2023-02-23T18:11:00.772Z,100045.53
2023-02-23T18:13:28.507Z,99979.44
2023-02-23T18:16:08.389Z,100005.25
2023-02-23T18:18:36.471Z,100081.50
2023-02-23T18:21:03.368Z,100012.09
2023-02-23T18:23:32.983Z,100087.91
2023-02-23T18:26:10.553Z,100054.13
2023-02-23T18:28:38.773Z,100064.63
2023-02-23T18:31:05.787Z,100068.41
2023-02-23T18:33:35.938Z,99960.81
2023-02-23T18:36:04.163Z,100023.34
2023-02-23T18:38:30.909Z,100103.56
2023-02-23T18:40:58.540Z,100081.81
2023-02-23T18:43:25.550Z,100069.78
2023-02-23T18:45:52.481Z,100093.53
2023-02-23T18:48:19.371Z,100015.50
2023-02-23T18:50:46.259Z,100102.97
2023-02-23T18:53:13.011Z,100081.16
2023-02-23T18:55:41.099Z,99999.06
2023-02-23T18:58:08.048Z,100067.09
2023-02-23T19:00:40.274Z,100056.81
2023-02-23T19:03:07.492Z,100048.53
2023-02-23T19:05:36.383Z,100104.69
2023-02-23T19:08:13.577Z,100080.19
2023-02-23T19:10:40.840Z,100093.03
2023-02-23T19:13:09.070Z,100122.19
2023-02-23T19:15:35.980Z,100090.28
2023-02-23T19:18:03.496Z,100129.50
2023-02-23T19:20:35.799Z,100129.78
2023-02-23T19:23:05.961Z,100116.41
2023-02-23T19:25:33.010Z,100113.94
2023-02-23T19:27:59.798Z,100125.88
2023-02-23T19:30:27.175Z,100094.84
2023-02-23T19:32:54.172Z,100137.34
2023-02-23T19:35:21.474Z,100089.31
2023-02-23T19:37:49.524Z,99932.97
2023-02-23T19:40:19.858Z,100072.84
2023-02-23T19:42:50.530Z,100125.38
2023-02-23T19:45:17.980Z,100097.94
2023-02-23T19:47:46.220Z,100131.59
2023-02-23T19:50:13.833Z,100073.53
2023-02-23T19:52:40.716Z,100117.06
2023-02-23T19:55:08.084Z,100109.31
2023-02-23T19:57:35.104Z,100123.22
2023-02-23T20:00:01.859Z,100108.53
2023-02-23T20:02:28.687Z,100093.25
2023-02-23T20:04:55.612Z,100106.81
2023-02-23T20:07:22.385Z,100087.66
2023-02-23T20:09:49.186Z,100095.72
2023-02-23T20:12:16.115Z,100028.84
2023-02-23T20:14:43.831Z,100034.91
2023-02-23T20:17:10.752Z,100058.81
2023-02-23T20:19:37.542Z,100099.34
2023-02-23T20:22:04.358Z,100100.50
2023-02-23T20:24:31.148Z,100042.47
2023-02-23T20:26:59.445Z,100040.81
2023-02-23T20:29:28.233Z,100103.94
2023-02-23T20:31:55.119Z,99999.75
2023-02-23T20:34:24.372Z,100044.50
2023-02-23T20:36:51.878Z,100053.78
2023-02-23T20:39:19.260Z,100079.59
2023-02-23T20:41:47.988Z,100093.78
2023-02-23T20:44:15.709Z,100055.19
2023-02-23T20:46:43.028Z,100069.91
2023-02-23T20:49:13.150Z,100051.66
2023-02-23T20:51:43.838Z,100032.19
2023-02-23T20:54:11.286Z,100101.91
2023-02-23T20:56:41.078Z,100060.06
2023-02-23T20:59:11.379Z,100066.13
2023-02-23T21:01:42.065Z,100007.53
2023-02-23T21:04:09.004Z,100003.91
2023-02-23T21:06:35.837Z,99993.09
2023-02-23T21:09:05.595Z,100126.88
2023-02-23T21:11:32.466Z,100043.78
2023-02-23T21:13:59.540Z,100044.28
2023-02-23T21:16:26.627Z,100037.63
2023-02-23T21:19:04.254Z,100065.22
2023-02-23T21:21:38.933Z,100086.59
2023-02-23T21:24:06.016Z,100074.97
2023-02-23T21:26:32.824Z,100134.00
2023-02-23T21:28:59.758Z,100112.56
2023-02-23T21:31:26.757Z,100122.84
2023-02-23T21:33:53.812Z,100120.69
2023-02-23T21:36:20.800Z,100120.94
2023-02-23T21:38:47.647Z,100106.84
2023-02-23T21:41:15.114Z,100101.53
2023-02-23T21:43:43.144Z,100091.50
2023-02-23T21:46:14.524Z,100125.44
2023-02-23T21:48:41.775Z,100107.16
2023-02-23T21:51:11.758Z,100107.09
2023-02-23T21:53:38.473Z,100124.63
2023-02-23T21:56:13.662Z,100094.31
2023-02-23T21:58:46.976Z,100124.34
2023-02-23T22:01:18.256Z,100119.59
2023-02-23T22:03:45.487Z,100060.09
2023-02-23T22:06:13.514Z,100111.81
2023-02-23T22:08:40.440Z,100100.97
2023-02-23T22:11:08.923Z,100110.66
2023-02-23T22:13:35.810Z,100110.66
2023-02-23T22:16:03.319Z,100112.63
2023-02-23T22:18:30.212Z,100082.88
2023-02-23T22:21:01.771Z,100085.06
2023-02-23T22:23:28.654Z,100104.25
2023-02-23T22:25:55.504Z,100019.22
2023-02-23T22:28:22.316Z,100070.09
2023-02-23T22:30:51.271Z,100103.44
2023-02-23T22:33:24.228Z,100111.50
2023-02-23T22:35:51.279Z,100092.91
2023-02-23T22:38:20.843Z,100063.97
2023-02-23T22:40:47.984Z,100082.88
2023-02-23T22:43:17.618Z,100055.09
2023-02-23T22:45:44.492Z,100112.38
2023-02-23T22:48:11.326Z,100061.19
2023-02-23T22:50:38.283Z,100114.59
2023-02-23T22:53:06.004Z,100106.22
2023-02-23T22:55:34.021Z,100034.25
2023-02-23T22:58:01.297Z,100090.63
2023-02-23T23:00:29.114Z,100048.38
2023-02-23T23:02:56.003Z,100051.44
2023-02-23T23:05:22.901Z,99976.13
2023-02-23T23:07:49.771Z,100092.88
2023-02-23T23:10:17.696Z,100025.94
2023-02-23T23:12:44.775Z,100104.94
2023-02-23T23:15:15.037Z,100073.53
2023-02-23T23:17:51.426Z,100100.53
2023-02-23T23:20:22.909Z,99987.41
2023-02-23T23:22:50.077Z,100049.41
2023-02-23T23:25:23.322Z,100068.03
2023-02-23T23:27:53.328Z,100051.91
2023-02-23T23:30:29.394Z,100098.38
2023-02-23T23:32:57.414Z,100050.25
2023-02-23T23:35:26.125Z,100060.84
2023-02-23T23:37:53.093Z,100091.16
2023-02-23T23:40:24.584Z,100086.13
2023-02-23T23:42:51.552Z,100090.31
2023-02-23T23:45:19.077Z,100058.00
2023-02-23T23:47:46.191Z,100027.16
2023-02-23T23:50:13.748Z,100032.97
2023-02-23T23:52:43.640Z,100077.75
2023-02-23T23:55:14.894Z,100075.22
2023-02-23T23:57:42.039Z,100078.00
